Pagrindinis puslapis
METAR-TAF:

METAR-TAF

Oro uostai :

Frozinonė, Italija

platuma: 41-38N, ilguma: 013-18E, Aukštis: 180 m

Dabartinis oras

Ataskaita buvo paskelbta 19 valandos ir 51 minutes, ne 17:55 UTC
Ramus vėjas
Temperatūra 11°C
Drėgmė 87%
Slėgis 1022 hPa
Matomumas 10 km arba daugiau
Mažai debesys ne aukštis 3500 ft

METAR: LIRH 061755Z 00000KT 9999 FEW035 11/09 Q1022 RMK BKN MON INVIS NC VIS MIN 9999 WIND THR16 /////KT BLU

Laikas: 14:46 (13:46 UTC)

Prognozė

Ataskaita buvo paskelbta 23 valandos ir 46 minutes, ne 14:00 UTC
Prognozė galioja nuo 06 metu 15 UTC su 06 metu 24 UTC
Vėjas 3 kt nuo kintamojo kryptimis
Matomumas: 5000 m
Išsisklaidę debesys ne aukštis 3500 ft
rūkana
Laikinai
nuo 06 metu 18 UTC su 06 metu 24 UTC
Matomumas: 2000 m
Su prošvaistėmis ne aukštis 3000 ft
lietus

TAF: LIRH 061400Z 0615/0624 VRB03KT 5000 BR SCT035 TEMPO 0618/0624 2000 RA BKN030

Orai ataskaitas ir orų prognozės (METAR, TAF).

turimą stotys yra geltonos ir raudonos taškus žemėlapyje.

Perkelti pele per norėdami pamatyti stoties vardą.

Tada spustelėkite, norėdami matyti oro stebėjimo ir prognozės.

Norėdami pakeisti žemėlapį: spustelėkite ant žalios mygtukų su juodo kryžiaus žemyn,; žalią mygtuką su brūkšneliu, jei norite nutolinti; arba žalių rodyklių gretimoms žemėlapius.


METAR-TAF: